sensor_id;sensor_type;location;lat;lon;timestamp;pressure;altitude;pressure_sealevel;temperature;humidity
13974;BME280;7060;43.770;4.008;2023-04-07T00:00:48;101243.09;;;5.01;63.81
13974;BME280;7060;43.770;4.008;2023-04-07T00:03:16;101224.28;;;4.92;63.35
13974;BME280;7060;43.770;4.008;2023-04-07T00:05:45;101234.41;;;4.99;63.35
13974;BME280;7060;43.770;4.008;2023-04-07T00:08:15;101227.53;;;5.09;63.08
13974;BME280;7060;43.770;4.008;2023-04-07T00:10:43;101235.59;;;5.08;63.00
13974;BME280;7060;43.770;4.008;2023-04-07T00:13:12;101230.06;;;4.98;63.43
13974;BME280;7060;43.770;4.008;2023-04-07T00:15:40;101231.47;;;4.90;63.50
13974;BME280;7060;43.770;4.008;2023-04-07T00:18:08;101236.09;;;4.86;63.83
13974;BME280;7060;43.770;4.008;2023-04-07T00:20:37;101234.09;;;4.75;63.46
13974;BME280;7060;43.770;4.008;2023-04-07T00:23:06;101242.56;;;4.68;64.47
13974;BME280;7060;43.770;4.008;2023-04-07T00:25:35;101239.72;;;4.71;63.45
13974;BME280;7060;43.770;4.008;2023-04-07T00:28:04;101238.00;;;4.70;63.74
13974;BME280;7060;43.770;4.008;2023-04-07T00:30:32;101236.31;;;4.69;63.95
13974;BME280;7060;43.770;4.008;2023-04-07T00:33:01;101230.44;;;4.64;63.95
13974;BME280;7060;43.770;4.008;2023-04-07T00:35:29;101227.88;;;4.62;64.51
13974;BME280;7060;43.770;4.008;2023-04-07T00:37:58;101229.97;;;4.57;64.22
13974;BME280;7060;43.770;4.008;2023-04-07T00:40:27;101225.22;;;4.48;64.82
13974;BME280;7060;43.770;4.008;2023-04-07T00:42:56;101218.63;;;4.41;65.18
13974;BME280;7060;43.770;4.008;2023-04-07T00:45:25;101212.66;;;4.37;64.77
13974;BME280;7060;43.770;4.008;2023-04-07T00:47:55;101210.13;;;4.36;65.15
13974;BME280;7060;43.770;4.008;2023-04-07T00:50:25;101181.84;;;4.22;64.49
13974;BME280;7060;43.770;4.008;2023-04-07T00:52:53;101205.00;;;4.33;64.95
13974;BME280;7060;43.770;4.008;2023-04-07T00:55:24;101199.13;;;4.28;64.42
13974;BME280;7060;43.770;4.008;2023-04-07T00:57:53;101207.34;;;4.23;64.39
13974;BME280;7060;43.770;4.008;2023-04-07T01:00:26;101211.34;;;4.16;65.00
13974;BME280;7060;43.770;4.008;2023-04-07T01:02:58;101176.72;;;3.91;64.71
13974;BME280;7060;43.770;4.008;2023-04-07T01:05:36;101201.41;;;4.05;65.71
13974;BME280;7060;43.770;4.008;2023-04-07T01:08:11;101196.88;;;4.07;65.79
13974;BME280;7060;43.770;4.008;2023-04-07T01:10:47;101196.31;;;4.17;64.65
13974;BME280;7060;43.770;4.008;2023-04-07T01:13:22;101190.09;;;4.18;65.16
13974;BME280;7060;43.770;4.008;2023-04-07T01:16:11;101180.72;;;4.12;64.31
13974;BME280;7060;43.770;4.008;2023-04-07T01:18:51;101190.81;;;4.05;64.95
13974;BME280;7060;43.770;4.008;2023-04-07T01:21:25;101178.97;;;3.97;65.09
13974;BME280;7060;43.770;4.008;2023-04-07T01:24:19;101184.59;;;3.92;65.41
13974;BME280;7060;43.770;4.008;2023-04-07T01:26:55;101181.34;;;3.87;65.83
13974;BME280;7060;43.770;4.008;2023-04-07T01:29:33;101188.34;;;3.88;65.20
13974;BME280;7060;43.770;4.008;2023-04-07T01:32:05;101189.66;;;3.81;66.16
13974;BME280;7060;43.770;4.008;2023-04-07T01:34:36;101188.88;;;3.79;65.69
13974;BME280;7060;43.770;4.008;2023-04-07T01:37:06;101185.47;;;3.77;66.05
13974;BME280;7060;43.770;4.008;2023-04-07T01:39:35;101182.03;;;3.91;65.61
13974;BME280;7060;43.770;4.008;2023-04-07T01:42:06;101177.19;;;3.97;66.23
13974;BME280;7060;43.770;4.008;2023-04-07T01:44:37;101182.31;;;4.00;65.64
13974;BME280;7060;43.770;4.008;2023-04-07T01:47:07;101174.94;;;3.91;66.42
13974;BME280;7060;43.770;4.008;2023-04-07T01:49:35;101150.81;;;3.82;65.92
13974;BME280;7060;43.770;4.008;2023-04-07T01:52:06;101172.38;;;4.04;65.21
13974;BME280;7060;43.770;4.008;2023-04-07T01:54:35;101166.91;;;4.07;64.90
13974;BME280;7060;43.770;4.008;2023-04-07T01:57:04;101175.53;;;4.10;64.91
13974;BME280;7060;43.770;4.008;2023-04-07T01:59:33;101167.41;;;4.14;63.93
13974;BME280;7060;43.770;4.008;2023-04-07T02:02:04;101165.59;;;4.14;64.27
13974;BME280;7060;43.770;4.008;2023-04-07T02:04:37;101167.41;;;4.14;64.25
13974;BME280;7060;43.770;4.008;2023-04-07T02:07:19;101167.09;;;4.04;63.88
13974;BME280;7060;43.770;4.008;2023-04-07T02:09:50;101150.66;;;3.85;64.33
13974;BME280;7060;43.770;4.008;2023-04-07T02:12:25;101171.72;;;3.86;64.25
13974;BME280;7060;43.770;4.008;2023-04-07T02:15:08;101170.47;;;3.78;65.10
13974;BME280;7060;43.770;4.008;2023-04-07T02:17:45;101168.19;;;3.71;65.03
13974;BME280;7060;43.770;4.008;2023-04-07T02:20:15;101172.16;;;3.64;65.50
13974;BME280;7060;43.770;4.008;2023-04-07T02:22:45;101162.88;;;3.57;66.16
13974;BME280;7060;43.770;4.008;2023-04-07T02:25:21;101176.28;;;3.68;65.55
13974;BME280;7060;43.770;4.008;2023-04-07T02:27:49;101169.38;;;3.66;66.21
13974;BME280;7060;43.770;4.008;2023-04-07T02:30:18;101174.03;;;3.62;66.20
13974;BME280;7060;43.770;4.008;2023-04-07T02:32:48;101175.16;;;3.58;66.19
13974;BME280;7060;43.770;4.008;2023-04-07T02:35:17;101174.56;;;3.53;66.68
13974;BME280;7060;43.770;4.008;2023-04-07T02:37:46;101172.19;;;3.49;67.23
13974;BME280;7060;43.770;4.008;2023-04-07T02:40:15;101173.22;;;3.46;67.39
13974;BME280;7060;43.770;4.008;2023-04-07T02:42:43;101174.06;;;3.47;67.04
13974;BME280;7060;43.770;4.008;2023-04-07T02:45:12;101086.31;;;2.96;66.82
13974;BME280;7060;43.770;4.008;2023-04-07T02:47:40;101174.06;;;3.47;66.77
13974;BME280;7060;43.770;4.008;2023-04-07T02:50:10;101170.41;;;3.49;67.03
13974;BME280;7060;43.770;4.008;2023-04-07T02:52:39;101174.75;;;3.50;67.17
13974;BME280;7060;43.770;4.008;2023-04-07T02:55:11;101159.72;;;3.51;66.91
13974;BME280;7060;43.770;4.008;2023-04-07T02:57:40;101165.59;;;3.56;66.48
13974;BME280;7060;43.770;4.008;2023-04-07T03:00:19;101172.09;;;3.50;65.83
13974;BME280;7060;43.770;4.008;2023-04-07T03:03:06;101164.78;;;3.39;66.05
13974;BME280;7060;43.770;4.008;2023-04-07T03:05:39;101168.78;;;3.47;66.49
13974;BME280;7060;43.770;4.008;2023-04-07T03:08:09;101163.50;;;3.47;67.04
13974;BME280;7060;43.770;4.008;2023-04-07T03:10:39;101139.41;;;3.37;66.09
13974;BME280;7060;43.770;4.008;2023-04-07T03:13:08;101150.63;;;3.40;66.15
13974;BME280;7060;43.770;4.008;2023-04-07T03:15:39;101148.94;;;3.39;66.31
13974;BME280;7060;43.770;4.008;2023-04-07T03:18:07;101113.75;;;3.09;65.60
13974;BME280;7060;43.770;4.008;2023-04-07T03:20:40;101148.13;;;3.23;65.84
13974;BME280;7060;43.770;4.008;2023-04-07T03:23:10;101145.50;;;3.23;65.96
13974;BME280;7060;43.770;4.008;2023-04-07T03:25:39;101128.44;;;3.13;66.67
13974;BME280;7060;43.770;4.008;2023-04-07T03:28:10;101145.25;;;3.12;66.22
13974;BME280;7060;43.770;4.008;2023-04-07T03:30:39;101140.16;;;3.09;66.34
13974;BME280;7060;43.770;4.008;2023-04-07T03:33:08;101135.22;;;3.03;66.51
13974;BME280;7060;43.770;4.008;2023-04-07T03:35:37;101130.72;;;3.05;66.94
13974;BME280;7060;43.770;4.008;2023-04-07T03:38:08;101084.75;;;2.78;66.86
13974;BME280;7060;43.770;4.008;2023-04-07T03:40:37;101131.66;;;3.04;66.47
13974;BME280;7060;43.770;4.008;2023-04-07T03:43:05;101127.91;;;3.08;66.18
13974;BME280;7060;43.770;4.008;2023-04-07T03:45:39;101128.75;;;3.08;65.96
13974;BME280;7060;43.770;4.008;2023-04-07T03:48:08;101121.25;;;3.01;65.27
13974;BME280;7060;43.770;4.008;2023-04-07T03:50:47;101116.91;;;3.00;65.61
13974;BME280;7060;43.770;4.008;2023-04-07T03:53:19;101121.59;;;2.95;65.15
13974;BME280;7060;43.770;4.008;2023-04-07T03:55:49;101122.97;;;2.86;65.51
13974;BME280;7060;43.770;4.008;2023-04-07T03:58:36;101117.03;;;2.83;66.08
13974;BME280;7060;43.770;4.008;2023-04-07T04:01:12;101121.09;;;2.88;65.62
13974;BME280;7060;43.770;4.008;2023-04-07T04:03:43;101121.94;;;2.89;66.22
13974;BME280;7060;43.770;4.008;2023-04-07T04:06:22;101123.25;;;2.82;66.79
13974;BME280;7060;43.770;4.008;2023-04-07T04:08:54;101124.53;;;2.74;66.48
13974;BME280;7060;43.770;4.008;2023-04-07T04:11:24;101128.09;;;2.73;66.69
13974;BME280;7060;43.770;4.008;2023-04-07T04:13:57;101119.59;;;2.68;66.88
13974;BME280;7060;43.770;4.008;2023-04-07T04:16:26;101124.00;;;2.68;66.89
13974;BME280;7060;43.770;4.008;2023-04-07T04:18:57;101119.41;;;2.71;67.00
13974;BME280;7060;43.770;4.008;2023-04-07T04:21:29;101119.59;;;2.68;67.16
13974;BME280;7060;43.770;4.008;2023-04-07T04:23:59;101120.53;;;2.67;67.23
13974;BME280;7060;43.770;4.008;2023-04-07T04:26:28;101122.47;;;2.64;67.34
13974;BME280;7060;43.770;4.008;2023-04-07T04:29:03;101125.03;;;2.65;67.23
13974;BME280;7060;43.770;4.008;2023-04-07T04:31:32;101122.06;;;2.71;67.00
13974;BME280;7060;43.770;4.008;2023-04-07T04:34:01;101130.91;;;2.70;67.50
13974;BME280;7060;43.770;4.008;2023-04-07T04:36:30;101126.22;;;2.76;66.45
13974;BME280;7060;43.770;4.008;2023-04-07T04:39:04;101122.66;;;2.77;66.35
13974;BME280;7060;43.770;4.008;2023-04-07T04:41:34;101128.53;;;2.82;66.13
13974;BME280;7060;43.770;4.008;2023-04-07T04:44:03;101126.06;;;2.79;65.65
13974;BME280;7060;43.770;4.008;2023-04-07T04:46:33;101115.75;;;2.74;65.39
13974;BME280;7060;43.770;4.008;2023-04-07T04:49:02;101122.31;;;2.67;64.87
13974;BME280;7060;43.770;4.008;2023-04-07T04:51:30;101126.91;;;2.63;65.07
13974;BME280;7060;43.770;4.008;2023-04-07T04:54:07;101123.19;;;2.52;65.40
13974;BME280;7060;43.770;4.008;2023-04-07T04:56:37;101123.00;;;2.39;65.78
13974;BME280;7060;43.770;4.008;2023-04-07T04:59:05;101086.72;;;2.11;66.38
13974;BME280;7060;43.770;4.008;2023-04-07T05:01:42;101119.81;;;2.32;66.17
13974;BME280;7060;43.770;4.008;2023-04-07T05:04:15;101119.91;;;2.31;66.20
13974;BME280;7060;43.770;4.008;2023-04-07T05:06:51;101111.22;;;2.29;66.09
13974;BME280;7060;43.770;4.008;2023-04-07T05:09:25;101103.50;;;2.26;66.65
13974;BME280;7060;43.770;4.008;2023-04-07T05:11:54;101108.16;;;2.21;67.35
13974;BME280;7060;43.770;4.008;2023-04-07T05:14:24;101109.88;;;2.22;67.16
13974;BME280;7060;43.770;4.008;2023-04-07T05:16:59;101110.81;;;2.21;67.76
13974;BME280;7060;43.770;4.008;2023-04-07T05:19:28;101109.09;;;2.20;68.08
13974;BME280;7060;43.770;4.008;2023-04-07T05:22:03;101110.97;;;2.18;68.21
13974;BME280;7060;43.770;4.008;2023-04-07T05:24:41;101112.59;;;2.20;67.93
13974;BME280;7060;43.770;4.008;2023-04-07T05:27:09;101111.75;;;2.20;67.94
13974;BME280;7060;43.770;4.008;2023-04-07T05:29:39;101114.38;;;2.20;67.95
13974;BME280;7060;43.770;4.008;2023-04-07T05:32:14;101123.16;;;2.20;67.76
13974;BME280;7060;43.770;4.008;2023-04-07T05:34:43;101117.88;;;2.20;68.20
13974;BME280;7060;43.770;4.008;2023-04-07T05:37:13;101118.28;;;2.28;67.92
13974;BME280;7060;43.770;4.008;2023-04-07T05:39:43;101117.25;;;2.31;67.71
13974;BME280;7060;43.770;4.008;2023-04-07T05:42:13;101127.91;;;2.29;68.06
13974;BME280;7060;43.770;4.008;2023-04-07T05:44:44;101123.31;;;2.33;67.70
13974;BME280;7060;43.770;4.008;2023-04-07T05:47:13;101128.94;;;2.43;67.81
13974;BME280;7060;43.770;4.008;2023-04-07T05:49:42;101127.09;;;2.45;67.37
13974;BME280;7060;43.770;4.008;2023-04-07T05:52:13;101121.47;;;2.51;67.54
13974;BME280;7060;43.770;4.008;2023-04-07T05:54:49;101124.44;;;2.60;67.15
13974;BME280;7060;43.770;4.008;2023-04-07T05:57:19;101133.13;;;2.62;67.05
13974;BME280;7060;43.770;4.008;2023-04-07T05:59:50;101119.59;;;2.68;67.35
13974;BME280;7060;43.770;4.008;2023-04-07T06:02:19;101120.69;;;2.80;67.65
13974;BME280;7060;43.770;4.008;2023-04-07T06:04:47;101128.00;;;2.91;67.58
13974;BME280;7060;43.770;4.008;2023-04-07T06:07:18;101118.03;;;2.96;67.31
13974;BME280;7060;43.770;4.008;2023-04-07T06:09:46;101123.16;;;3.13;67.13
13974;BME280;7060;43.770;4.008;2023-04-07T06:12:16;101124.16;;;3.26;67.83
13974;BME280;7060;43.770;4.008;2023-04-07T06:14:50;101133.75;;;3.43;67.45
13974;BME280;7060;43.770;4.008;2023-04-07T06:17:18;101130.41;;;3.69;68.03
13974;BME280;7060;43.770;4.008;2023-04-07T06:19:47;101129.13;;;4.05;68.58
13974;BME280;7060;43.770;4.008;2023-04-07T06:22:15;101128.78;;;4.52;68.14
13974;BME280;7060;43.770;4.008;2023-04-07T06:24:44;101132.97;;;4.97;67.37
13974;BME280;7060;43.770;4.008;2023-04-07T06:27:12;101137.09;;;5.41;66.60
13974;BME280;7060;43.770;4.008;2023-04-07T06:29:43;101133.56;;;5.80;66.45
13974;BME280;7060;43.770;4.008;2023-04-07T06:32:12;101141.59;;;6.29;65.69
13974;BME280;7060;43.770;4.008;2023-04-07T06:34:40;101137.84;;;6.81;64.76
13974;BME280;7060;43.770;4.008;2023-04-07T06:37:09;101147.84;;;7.38;63.23
13974;BME280;7060;43.770;4.008;2023-04-07T06:39:37;101141.56;;;8.07;61.72
13974;BME280;7060;43.770;4.008;2023-04-07T06:42:06;101137.44;;;8.70;59.72
13974;BME280;7060;43.770;4.008;2023-04-07T06:44:39;101142.13;;;9.32;57.80
13974;BME280;7060;43.770;4.008;2023-04-07T06:47:08;101140.03;;;9.98;55.75
13974;BME280;7060;43.770;4.008;2023-04-07T06:49:37;101138.22;;;10.60;54.28
13974;BME280;7060;43.770;4.008;2023-04-07T06:52:05;101138.19;;;11.09;53.77
13974;BME280;7060;43.770;4.008;2023-04-07T06:54:34;101144.41;;;11.58;52.52
13974;BME280;7060;43.770;4.008;2023-04-07T06:57:02;101136.38;;;12.14;51.19
13974;BME280;7060;43.770;4.008;2023-04-07T06:59:32;101140.44;;;12.65;48.91
13974;BME280;7060;43.770;4.008;2023-04-07T07:02:01;101134.38;;;13.08;48.10
13974;BME280;7060;43.770;4.008;2023-04-07T07:04:31;101140.06;;;13.59;47.44
13974;BME280;7060;43.770;4.008;2023-04-07T07:07:00;101132.63;;;13.96;46.49
13974;BME280;7060;43.770;4.008;2023-04-07T07:09:29;101140.91;;;14.37;45.36
13974;BME280;7060;43.770;4.008;2023-04-07T07:11:59;101140.13;;;14.78;44.61
13974;BME280;7060;43.770;4.008;2023-04-07T07:14:30;101139.47;;;14.93;43.41
13974;BME280;7060;43.770;4.008;2023-04-07T07:16:58;101138.47;;;14.94;43.29
13974;BME280;7060;43.770;4.008;2023-04-07T07:19:27;101133.91;;;14.78;43.14
13974;BME280;7060;43.770;4.008;2023-04-07T07:21:56;101132.22;;;14.77;42.89
13974;BME280;7060;43.770;4.008;2023-04-07T07:24:25;101129.16;;;14.72;42.42
13974;BME280;7060;43.770;4.008;2023-04-07T07:26:55;101125.53;;;14.55;42.38
13974;BME280;7060;43.770;4.008;2023-04-07T07:29:23;101125.44;;;14.31;43.03
13974;BME280;7060;43.770;4.008;2023-04-07T07:31:53;101131.34;;;14.08;42.79
13974;BME280;7060;43.770;4.008;2023-04-07T07:34:23;101125.09;;;13.74;43.96
13974;BME280;7060;43.770;4.008;2023-04-07T07:36:52;101128.09;;;13.71;44.73
13974;BME280;7060;43.770;4.008;2023-04-07T07:39:22;101126.88;;;13.65;44.58
13974;BME280;7060;43.770;4.008;2023-04-07T07:41:51;101121.03;;;13.70;44.70
13974;BME280;7060;43.770;4.008;2023-04-07T07:44:21;101122.91;;;13.77;44.86
13974;BME280;7060;43.770;4.008;2023-04-07T07:46:49;101124.81;;;13.85;44.37
13974;BME280;7060;43.770;4.008;2023-04-07T07:49:18;101119.75;;;13.82;43.80
13974;BME280;7060;43.770;4.008;2023-04-07T07:51:47;101117.81;;;14.52;43.47
13974;BME280;7060;43.770;4.008;2023-04-07T07:54:16;101110.19;;;14.13;44.11
13974;BME280;7060;43.770;4.008;2023-04-07T07:56:45;101114.50;;;13.98;44.42
13974;BME280;7060;43.770;4.008;2023-04-07T07:59:14;101108.06;;;13.91;44.11
13974;BME280;7060;43.770;4.008;2023-04-07T08:01:43;101105.16;;;13.84;44.24
13974;BME280;7060;43.770;4.008;2023-04-07T08:04:12;101095.72;;;13.80;44.90
13974;BME280;7060;43.770;4.008;2023-04-07T08:06:41;101098.47;;;13.88;44.96
13974;BME280;7060;43.770;4.008;2023-04-07T08:09:09;101089.25;;;13.91;43.59
13974;BME280;7060;43.770;4.008;2023-04-07T08:11:38;101093.00;;;13.98;43.66
13974;BME280;7060;43.770;4.008;2023-04-07T08:14:07;101094.03;;;14.05;43.30
13974;BME280;7060;43.770;4.008;2023-04-07T08:16:36;101098.44;;;14.14;43.63
13974;BME280;7060;43.770;4.008;2023-04-07T08:19:05;101094.34;;;14.28;43.91
13974;BME280;7060;43.770;4.008;2023-04-07T08:21:33;101099.94;;;14.43;44.23
13974;BME280;7060;43.770;4.008;2023-04-07T08:24:02;101096.59;;;14.49;42.95
13974;BME280;7060;43.770;4.008;2023-04-07T08:26:31;101090.28;;;14.58;42.74
13974;BME280;7060;43.770;4.008;2023-04-07T08:29:00;101094.19;;;14.72;42.48
13974;BME280;7060;43.770;4.008;2023-04-07T08:31:30;101091.88;;;14.85;42.42
13974;BME280;7060;43.770;4.008;2023-04-07T08:33:58;101087.34;;;15.02;41.96
13974;BME280;7060;43.770;4.008;2023-04-07T08:36:27;101081.44;;;15.14;41.74
13974;BME280;7060;43.770;4.008;2023-04-07T08:38:57;101091.06;;;15.33;40.25
13974;BME280;7060;43.770;4.008;2023-04-07T08:41:32;101086.69;;;15.48;38.54
13974;BME280;7060;43.770;4.008;2023-04-07T08:44:03;101078.44;;;15.58;37.79
13974;BME280;7060;43.770;4.008;2023-04-07T08:46:37;101080.63;;;15.79;37.82
13974;BME280;7060;43.770;4.008;2023-04-07T08:49:08;101082.25;;;15.96;37.67
13974;BME280;7060;43.770;4.008;2023-04-07T08:51:37;101079.19;;;16.15;37.45
13974;BME280;7060;43.770;4.008;2023-04-07T08:54:11;101083.31;;;16.34;36.74
13974;BME280;7060;43.770;4.008;2023-04-07T08:56:40;101089.69;;;16.49;36.96
13974;BME280;7060;43.770;4.008;2023-04-07T08:59:10;101072.41;;;16.58;36.69
13974;BME280;7060;43.770;4.008;2023-04-07T09:01:40;101069.84;;;16.73;35.85
13974;BME280;7060;43.770;4.008;2023-04-07T09:04:09;101063.84;;;16.86;35.95
13974;BME280;7060;43.770;4.008;2023-04-07T09:06:38;101070.66;;;17.05;36.03
13974;BME280;7060;43.770;4.008;2023-04-07T09:09:06;101056.84;;;17.22;35.65
13974;BME280;7060;43.770;4.008;2023-04-07T09:11:37;101056.50;;;17.40;34.78
13974;BME280;7060;43.770;4.008;2023-04-07T09:14:06;101050.84;;;17.50;34.94
13974;BME280;7060;43.770;4.008;2023-04-07T09:16:35;101052.28;;;17.60;34.72
13974;BME280;7060;43.770;4.008;2023-04-07T09:19:07;101042.06;;;17.71;34.16
13974;BME280;7060;43.770;4.008;2023-04-07T09:21:46;101039.16;;;17.72;33.69
13974;BME280;7060;43.770;4.008;2023-04-07T09:24:22;101040.28;;;17.78;34.93
13974;BME280;7060;43.770;4.008;2023-04-07T09:27:07;100988.88;;;17.48;33.82
13974;BME280;7060;43.770;4.008;2023-04-07T09:29:37;101036.50;;;17.87;33.92
13974;BME280;7060;43.770;4.008;2023-04-07T09:32:06;101034.50;;;17.96;33.95
13974;BME280;7060;43.770;4.008;2023-04-07T09:34:37;101035.63;;;18.01;32.79
13974;BME280;7060;43.770;4.008;2023-04-07T09:37:07;101028.00;;;18.05;33.58
13974;BME280;7060;43.770;4.008;2023-04-07T09:39:48;101014.38;;;17.98;32.80
13974;BME280;7060;43.770;4.008;2023-04-07T09:42:17;101023.41;;;18.05;32.27
13974;BME280;7060;43.770;4.008;2023-04-07T09:44:46;101027.06;;;18.12;32.35
13974;BME280;7060;43.770;4.008;2023-04-07T09:47:15;101028.94;;;18.12;31.26
13974;BME280;7060;43.770;4.008;2023-04-07T09:49:52;101025.25;;;18.19;30.76
13974;BME280;7060;43.770;4.008;2023-04-07T09:52:24;101020.88;;;18.18;31.39
13974;BME280;7060;43.770;4.008;2023-04-07T09:54:54;101007.72;;;18.15;31.96
13974;BME280;7060;43.770;4.008;2023-04-07T09:57:23;101022.44;;;18.27;30.82
13974;BME280;7060;43.770;4.008;2023-04-07T09:59:52;101024.03;;;18.37;30.76
13974;BME280;7060;43.770;4.008;2023-04-07T10:02:22;101023.34;;;18.49;30.04
13974;BME280;7060;43.770;4.008;2023-04-07T10:04:54;101015.72;;;18.53;29.93
13974;BME280;7060;43.770;4.008;2023-04-07T10:07:23;101012.91;;;18.61;30.05
13974;BME280;7060;43.770;4.008;2023-04-07T10:09:51;101008.81;;;18.72;29.78
13974;BME280;7060;43.770;4.008;2023-04-07T10:12:19;101003.88;;;18.75;29.35
13974;BME280;7060;43.770;4.008;2023-04-07T10:14:50;100997.69;;;18.81;30.03
13974;BME280;7060;43.770;4.008;2023-04-07T10:17:19;100994.66;;;18.91;30.38
13974;BME280;7060;43.770;4.008;2023-04-07T10:19:49;100994.56;;;19.06;30.22
13974;BME280;7060;43.770;4.008;2023-04-07T10:22:20;100987.59;;;19.18;30.40
13974;BME280;7060;43.770;4.008;2023-04-07T10:24:54;100962.19;;;19.19;29.98
13974;BME280;7060;43.770;4.008;2023-04-07T10:27:29;100976.78;;;19.46;30.17
13974;BME280;7060;43.770;4.008;2023-04-07T10:29:59;100975.00;;;19.59;29.99
13974;BME280;7060;43.770;4.008;2023-04-07T10:32:30;100974.69;;;19.76;30.40
13974;BME280;7060;43.770;4.008;2023-04-07T10:34:59;100977.66;;;19.87;29.20
13974;BME280;7060;43.770;4.008;2023-04-07T10:37:29;100969.19;;;20.04;28.86
13974;BME280;7060;43.770;4.008;2023-04-07T10:40:28;100960.47;;;20.15;28.64
13974;BME280;7060;43.770;4.008;2023-04-07T10:42:57;100956.59;;;20.31;29.01
13974;BME280;7060;43.770;4.008;2023-04-07T10:45:50;100952.88;;;20.51;28.19
13974;BME280;7060;43.770;4.008;2023-04-07T10:48:20;100944.56;;;20.59;28.01
13974;BME280;7060;43.770;4.008;2023-04-07T10:51:10;100937.03;;;20.68;27.61
13974;BME280;7060;43.770;4.008;2023-04-07T10:57:08;100928.25;;;20.99;27.29
13974;BME280;7060;43.770;4.008;2023-04-07T10:59:40;100900.44;;;20.90;27.39
13974;BME280;7060;43.770;4.008;2023-04-07T11:02:34;100915.72;;;21.18;27.29
13974;BME280;7060;43.770;4.008;2023-04-07T11:05:03;100908.41;;;21.25;27.07
13974;BME280;7060;43.770;4.008;2023-04-07T11:07:46;100915.72;;;21.31;27.12
13974;BME280;7060;43.770;4.008;2023-04-07T11:10:16;100917.41;;;21.32;27.00
13974;BME280;7060;43.770;4.008;2023-04-07T11:13:03;100902.34;;;21.29;27.07
13974;BME280;7060;43.770;4.008;2023-04-07T11:15:34;100904.44;;;21.34;26.93
13974;BME280;7060;43.770;4.008;2023-04-07T11:20:46;100900.59;;;21.55;26.74
13974;BME280;7060;43.770;4.008;2023-04-07T11:23:16;100861.28;;;21.44;27.10
13974;BME280;7060;43.770;4.008;2023-04-07T11:25:46;100895.31;;;21.80;27.44
13974;BME280;7060;43.770;4.008;2023-04-07T11:28:17;100901.13;;;21.90;26.73
13974;BME280;7060;43.770;4.008;2023-04-07T11:30:48;100894.84;;;21.96;25.89
13974;BME280;7060;43.770;4.008;2023-04-07T11:33:19;100895.47;;;21.91;25.80
13974;BME280;7060;43.770;4.008;2023-04-07T11:35:49;100877.00;;;22.00;25.92
13974;BME280;7060;43.770;4.008;2023-04-07T11:38:18;100878.31;;;21.91;25.36
13974;BME280;7060;43.770;4.008;2023-04-07T11:40:47;100878.34;;;21.78;25.44
13974;BME280;7060;43.770;4.008;2023-04-07T11:43:18;100876.66;;;21.83;25.35
13974;BME280;7060;43.770;4.008;2023-04-07T11:46:03;100876.38;;;21.98;26.67
13974;BME280;7060;43.770;4.008;2023-04-07T11:48:33;100872.97;;;22.09;26.51
13974;BME280;7060;43.770;4.008;2023-04-07T11:51:03;100866.84;;;22.20;27.16
13974;BME280;7060;43.770;4.008;2023-04-07T11:53:32;100864.25;;;22.32;25.83
13974;BME280;7060;43.770;4.008;2023-04-07T11:56:04;100863.63;;;22.30;25.07
13974;BME280;7060;43.770;4.008;2023-04-07T11:58:35;100858.50;;;22.15;25.70
13974;BME280;7060;43.770;4.008;2023-04-07T12:01:04;100870.66;;;22.13;25.59
13974;BME280;7060;43.770;4.008;2023-04-07T12:03:36;100860.88;;;21.99;25.90
13974;BME280;7060;43.770;4.008;2023-04-07T12:06:05;100855.09;;;21.82;26.04
13974;BME280;7060;43.770;4.008;2023-04-07T12:08:38;100860.94;;;21.92;27.38
13974;BME280;7060;43.770;4.008;2023-04-07T12:11:07;100847.03;;;22.00;27.06
13974;BME280;7060;43.770;4.008;2023-04-07T12:13:37;100860.81;;;22.12;26.49
13974;BME280;7060;43.770;4.008;2023-04-07T12:16:07;100847.94;;;22.25;26.08
13974;BME280;7060;43.770;4.008;2023-04-07T12:18:35;100849.97;;;22.37;26.23
13974;BME280;7060;43.770;4.008;2023-04-07T12:21:04;100853.31;;;22.39;25.98
13974;BME280;7060;43.770;4.008;2023-04-07T12:23:32;100844.47;;;22.43;25.49
13974;BME280;7060;43.770;4.008;2023-04-07T12:26:01;100848.91;;;22.38;25.44
13974;BME280;7060;43.770;4.008;2023-04-07T12:28:29;100847.19;;;22.12;25.39
13974;BME280;7060;43.770;4.008;2023-04-07T12:30:59;100846.50;;;21.91;25.65
13974;BME280;7060;43.770;4.008;2023-04-07T12:33:27;100844.22;;;21.82;25.50
13974;BME280;7060;43.770;4.008;2023-04-07T12:35:56;100832.28;;;21.76;25.48
13974;BME280;7060;43.770;4.008;2023-04-07T12:38:24;100838.97;;;21.87;25.21
13974;BME280;7060;43.770;4.008;2023-04-07T12:40:53;100832.66;;;21.93;25.64
13974;BME280;7060;43.770;4.008;2023-04-07T12:43:21;100825.22;;;22.07;25.86
13974;BME280;7060;43.770;4.008;2023-04-07T12:45:50;100807.00;;;22.07;25.64
13974;BME280;7060;43.770;4.008;2023-04-07T12:48:20;100826.97;;;22.26;26.88
13974;BME280;7060;43.770;4.008;2023-04-07T12:50:49;100824.84;;;22.35;25.90
13974;BME280;7060;43.770;4.008;2023-04-07T12:53:18;100821.84;;;22.43;24.99
13974;BME280;7060;43.770;4.008;2023-04-07T12:55:46;100809.72;;;22.39;24.57
13974;BME280;7060;43.770;4.008;2023-04-07T12:58:16;100818.63;;;22.52;24.74
13974;BME280;7060;43.770;4.008;2023-04-07T13:00:45;100815.47;;;22.55;24.97
13974;BME280;7060;43.770;4.008;2023-04-07T13:03:14;100809.81;;;22.57;25.02
13974;BME280;7060;43.770;4.008;2023-04-07T13:05:45;100808.81;;;22.51;25.28
13974;BME280;7060;43.770;4.008;2023-04-07T13:08:14;100807.00;;;22.39;24.84
13974;BME280;7060;43.770;4.008;2023-04-07T13:10:42;100797.41;;;22.29;24.84
13974;BME280;7060;43.770;4.008;2023-04-07T13:13:11;100782.31;;;22.34;25.58
13974;BME280;7060;43.770;4.008;2023-04-07T13:15:39;100790.13;;;22.55;25.65
13974;BME280;7060;43.770;4.008;2023-04-07T13:18:08;100794.41;;;22.69;24.89
13974;BME280;7060;43.770;4.008;2023-04-07T13:20:37;100784.28;;;22.76;24.97
13974;BME280;7060;43.770;4.008;2023-04-07T13:23:07;100781.03;;;22.86;23.69
13974;BME280;7060;43.770;4.008;2023-04-07T13:25:36;100779.56;;;22.83;24.31
13974;BME280;7060;43.770;4.008;2023-04-07T13:28:04;100778.53;;;22.84;24.82
13974;BME280;7060;43.770;4.008;2023-04-07T13:30:33;100773.94;;;22.60;24.03